Portada
METAR-TAF:

METAR-TAF

Aeropuertos :

Base aérea

Tafraoui, Argelia

latitud: 35-32-33N, longitud: 000-31-56W, altitud: 112 m

Observación

El informe se hizo hace 29 minutos, a las 07:00 UTC
Viento 10 kt del norte
Temperatura 19°C
Humedad 68%
Presión 1014 hPa
Visibilidad: 8000 m
Escasas nubes a una altura de 2600 ft, Cumulus congestus.
Nubes dispersas a una altura de 3000 ft

METAR: DAOL 250700Z 01010KT 8000 FEW026TCU SCT030 19/13 Q1014

Hora: 08:29 (07:29 UTC)


TAF: falta

Observaciones y pronósticos meteorológicos de más de 4000 aeropuertos (mensajes METAR y TAF).

Los puntos amarillos y rojos representan las estaciones disponibles.

Ponga el ratón en el punto deseado para ver el nombre de la estación.

Haga clic para ver las observaciones y los pronósticos meteorológicos.

Para cambiar el mapa : haga clic en los botones verdes con una cruz de color negro para hacer un zoom, en el botón verde con un guión para alejar o en las flechas verdes para mapas adyacentes.


METAR-TAF: